createdAt,value
2019-05-03T00:00:14.208Z,12.52
2019-05-03T00:05:26.487Z,12.16
2019-05-03T00:10:27.917Z,12.20
2019-05-03T00:15:32.382Z,12.20
2019-05-03T00:20:33.390Z,12.50
2019-05-03T00:25:34.720Z,12.28
2019-05-03T00:30:36.080Z,12.46
2019-05-03T00:35:42.484Z,12.48
2019-05-03T00:40:43.756Z,12.27
2019-05-03T00:45:45.107Z,12.24
2019-05-03T00:50:47.193Z,12.21
2019-05-03T00:55:48.507Z,12.24
2019-05-03T01:00:49.897Z,12.26
2019-05-03T01:05:52.920Z,12.26
2019-05-03T01:10:53.370Z,12.37
2019-05-03T01:15:55.509Z,12.31
2019-05-03T01:20:56.857Z,12.18
2019-05-03T01:25:58.213Z,12.11
2019-05-03T01:30:59.557Z,12.22
2019-05-03T01:36:02.779Z,12.34
2019-05-03T01:41:02.262Z,12.47
2019-05-03T01:46:04.376Z,12.05
2019-05-03T01:51:13.972Z,12.31
2019-05-03T01:56:16.729Z,12.30
2019-05-03T02:01:22.091Z,12.39
2019-05-03T02:06:23.472Z,12.46
2019-05-03T02:11:25.206Z,12.37
2019-05-03T02:16:26.593Z,12.21
2019-05-03T02:21:28.125Z,12.42
2019-05-03T02:26:31.804Z,12.42
2019-05-03T02:31:32.956Z,12.47
2019-05-03T02:36:34.031Z,12.45
2019-05-03T02:41:36.915Z,12.55
2019-05-03T02:46:45.404Z,12.68
2019-05-03T02:51:47.029Z,12.67
2019-05-03T02:56:48.774Z,12.59
2019-05-03T03:01:50.864Z,12.75
2019-05-03T03:06:55.472Z,12.69
2019-05-03T03:11:55.700Z,12.52
2019-05-03T03:16:57.352Z,12.65
2019-05-03T03:22:00.371Z,12.77
2019-05-03T03:27:05.342Z,12.92
2019-05-03T03:32:10.122Z,12.54
2019-05-03T03:37:11.731Z,12.44
2019-05-03T03:42:16.066Z,12.48
2019-05-03T03:52:26.424Z,12.57
2019-05-03T03:57:30.996Z,12.30
2019-05-03T04:02:35.375Z,12.30
2019-05-03T04:07:36.159Z,12.03
2019-05-03T04:12:36.140Z,12.20
2019-05-03T04:17:45.935Z,12.27
2019-05-03T04:22:47.650Z,12.30
2019-05-03T04:27:49.339Z,12.65
2019-05-03T04:32:51.934Z,12.55
2019-05-03T04:37:56.549Z,12.55
2019-05-03T04:42:58.049Z,12.57
2019-05-03T04:48:00.303Z,12.32
2019-05-03T04:53:01.895Z,12.59
2019-05-03T05:03:18.961Z,12.59
2019-05-03T05:08:30.399Z,12.76
2019-05-03T05:19:00.290Z,12.60
2019-05-03T05:24:02.287Z,12.87
2019-05-03T05:29:14.584Z,12.98
2019-05-03T05:34:20.483Z,12.93
2019-05-03T05:39:26.474Z,12.96
2019-05-03T05:44:28.874Z,12.83
2019-05-03T05:49:37.569Z,12.94
2019-05-03T05:54:41.938Z,12.79
2019-05-03T05:59:45.373Z,12.95
2019-05-03T06:04:48.677Z,13.01
2019-05-03T06:09:56.109Z,13.22
2019-05-03T06:14:57.562Z,13.05
2019-05-03T06:20:10.721Z,12.62
2019-05-03T06:25:26.808Z,12.93
2019-05-03T06:30:41.899Z,12.82
2019-05-03T06:35:44.563Z,13.08
2019-05-03T06:40:45.682Z,13.26
2019-05-03T06:45:50.423Z,12.83
2019-05-03T06:50:49.409Z,13.03
2019-05-03T06:55:52.103Z,12.88
2019-05-03T07:00:55.422Z,13.22
2019-05-03T07:06:44.846Z,13.17
2019-05-03T07:22:59.537Z,12.65
2019-05-03T07:28:00.966Z,12.80
2019-05-03T07:33:07.466Z,13.13
2019-05-03T07:38:11.475Z,12.81
2019-05-03T07:43:14.881Z,12.86
2019-05-03T07:48:15.188Z,12.87
2019-05-03T07:53:19.261Z,13.03
2019-05-03T07:58:26.418Z,13.47
2019-05-03T08:03:28.293Z,13.71
2019-05-03T08:08:32.532Z,13.88
2019-05-03T08:13:35.689Z,13.97
2019-05-03T08:18:36.989Z,13.90
2019-05-03T08:23:41.549Z,14.12
2019-05-03T08:28:44.474Z,13.59
2019-05-03T08:39:15.759Z,13.68
2019-05-03T08:44:15.545Z,14.11
2019-05-03T08:49:17.617Z,13.94
2019-05-03T08:54:25.586Z,13.81
2019-05-03T08:59:32.177Z,13.69
2019-05-03T09:05:17.051Z,12.74
2019-05-03T09:09:39.873Z,13.31
2019-05-03T09:15:15.205Z,13.11
2019-05-03T09:20:17.135Z,13.08
2019-05-03T09:25:21.741Z,12.98
2019-05-03T09:30:30.953Z,13.13
2019-05-03T09:35:35.733Z,12.83
2019-05-03T09:40:36.943Z,12.27
2019-05-03T09:45:39.815Z,12.59
2019-05-03T09:55:48.798Z,12.09
2019-05-03T10:00:50.761Z,11.55
2019-05-03T10:05:55.220Z,11.72
2019-05-03T10:11:00.257Z,11.96
2019-05-03T10:16:01.622Z,12.01
2019-05-03T10:21:05.075Z,12.16
2019-05-03T10:26:05.067Z,12.02
2019-05-03T10:31:07.826Z,13.24
2019-05-03T10:36:08.959Z,13.26
2019-05-03T10:41:10.333Z,13.55
2019-05-03T10:46:11.691Z,13.68
2019-05-03T10:51:15.381Z,13.57
2019-05-03T10:56:22.697Z,13.63
2019-05-03T11:01:18.949Z,14.16
2019-05-03T11:06:20.414Z,14.02
2019-05-03T11:11:21.759Z,13.99
2019-05-03T11:16:23.084Z,14.67
2019-05-03T11:21:30.798Z,14.49
2019-05-03T11:26:27.226Z,14.54
2019-05-03T11:31:35.426Z,14.05
2019-05-03T11:36:45.456Z,14.61
2019-05-03T11:41:45.424Z,14.76
2019-05-03T11:46:46.797Z,14.88
2019-05-03T11:51:48.084Z,14.92
2019-05-03T11:56:49.441Z,14.34
2019-05-03T12:01:51.722Z,14.38
2019-05-03T12:06:52.134Z,14.25
2019-05-03T12:11:55.317Z,13.61
2019-05-03T12:17:18.878Z,13.18
2019-05-03T12:21:59.342Z,13.26
2019-05-03T12:27:00.186Z,12.84
2019-05-03T12:32:01.506Z,12.34
2019-05-03T12:37:04.965Z,12.67
2019-05-03T12:42:05.935Z,12.48
2019-05-03T12:47:07.226Z,12.77
2019-05-03T12:52:10.484Z,13.03
2019-05-03T12:57:11.400Z,12.64
2019-05-03T13:02:15.573Z,13.15
2019-05-03T13:07:21.565Z,13.48
2019-05-03T13:12:25.219Z,13.75
2019-05-03T13:17:30.406Z,13.46
2019-05-03T13:22:31.716Z,13.90
2019-05-03T13:33:05.777Z,14.05
2019-05-03T13:38:06.132Z,13.98
2019-05-03T13:43:08.902Z,14.10
2019-05-03T13:53:58.744Z,13.46
2019-05-03T13:59:02.254Z,13.08
2019-05-03T14:04:05.266Z,13.17
2019-05-03T14:09:07.290Z,12.74
2019-05-03T14:20:17.409Z,13.04
2019-05-03T14:25:55.107Z,13.10
2019-05-03T14:30:55.808Z,13.23
2019-05-03T14:41:22.030Z,13.62
2019-05-03T14:46:33.043Z,13.62
2019-05-03T14:51:35.536Z,13.89
2019-05-03T15:07:25.511Z,13.84
2019-05-03T15:17:51.027Z,13.96
2019-05-03T15:22:55.605Z,14.00
2019-05-03T15:28:07.639Z,14.27
2019-05-03T15:33:16.971Z,14.15
2019-05-03T15:38:21.733Z,14.07
2019-05-03T15:43:45.371Z,14.09
2019-05-03T15:48:54.971Z,14.24
2019-05-03T15:53:55.184Z,14.25
2019-05-03T15:58:56.701Z,14.46
2019-05-03T16:04:08.245Z,14.53
2019-05-03T16:09:09.647Z,14.66
2019-05-03T16:14:11.057Z,14.79
2019-05-03T16:19:12.435Z,14.80
2019-05-03T16:24:15.481Z,14.85
2019-05-03T16:29:15.400Z,14.79
2019-05-03T16:34:16.758Z,14.61
2019-05-03T16:39:18.126Z,14.39
2019-05-03T16:44:20.362Z,14.52
2019-05-03T16:49:21.735Z,14.57
2019-05-03T16:54:25.284Z,14.58
2019-05-03T16:59:24.832Z,14.64
2019-05-03T17:04:31.908Z,14.79
2019-05-03T17:15:17.869Z,14.71
2019-05-03T17:20:19.291Z,14.87
2019-05-03T17:25:20.688Z,14.94
2019-05-03T17:30:32.581Z,14.86
2019-05-03T17:35:25.148Z,14.89
2019-05-03T17:40:32.427Z,14.81
2019-05-03T17:45:37.894Z,14.73
2019-05-03T17:50:37.519Z,14.55
2019-05-03T17:55:41.657Z,14.51
2019-05-03T18:00:45.920Z,14.42
2019-05-03T18:05:50.215Z,14.36
2019-05-03T18:11:05.172Z,14.24
2019-05-03T18:16:06.587Z,13.98
2019-05-03T18:21:08.728Z,14.05
2019-05-03T18:26:10.097Z,14.20
2019-05-03T18:31:11.459Z,13.52
2019-05-03T18:36:14.654Z,14.03
2019-05-03T18:41:14.203Z,14.05
2019-05-03T18:46:17.364Z,14.28
2019-05-03T18:51:19.485Z,14.27
2019-05-03T18:56:20.851Z,14.14
2019-05-03T19:01:22.225Z,14.33
2019-05-03T19:06:23.620Z,14.09
2019-05-03T19:11:25.111Z,14.25
2019-05-03T19:16:28.381Z,14.36
2019-05-03T19:21:29.780Z,14.42
2019-05-03T19:26:31.289Z,14.22
2019-05-03T19:31:32.776Z,14.35
2019-05-03T19:36:37.098Z,14.38
2019-05-03T19:41:37.036Z,14.43
2019-05-03T19:46:38.361Z,14.45
2019-05-03T19:51:40.466Z,14.44
2019-05-03T19:56:41.970Z,14.49
2019-05-03T20:01:43.296Z,14.45
2019-05-03T20:06:46.530Z,14.40
2019-05-03T20:11:47.909Z,14.28
2019-05-03T20:16:49.309Z,14.24
2019-05-03T20:21:50.722Z,14.24
2019-05-03T20:26:52.108Z,14.02
2019-05-03T20:31:59.963Z,13.98
2019-05-03T20:37:01.322Z,13.97
2019-05-03T20:42:04.420Z,14.01
2019-05-03T20:47:04.474Z,13.97
2019-05-03T20:52:06.238Z,13.96
2019-05-03T20:57:07.617Z,13.91
2019-05-03T21:02:09.036Z,13.91
2019-05-03T21:07:11.533Z,13.98
2019-05-03T21:12:14.813Z,13.97
2019-05-03T21:22:44.883Z,13.65
2019-05-03T21:27:46.244Z,13.59
2019-05-03T21:32:47.829Z,13.15
2019-05-03T21:37:49.269Z,13.46
2019-05-03T21:42:51.211Z,13.32
2019-05-03T21:48:06.606Z,13.64
2019-05-03T21:53:09.386Z,13.67
2019-05-03T21:58:16.037Z,13.64
2019-05-03T22:03:14.668Z,13.56
2019-05-03T22:08:15.942Z,13.65
2019-05-03T22:13:18.180Z,13.69
2019-05-03T22:18:19.553Z,13.73
2019-05-03T22:28:54.915Z,13.62
2019-05-03T22:33:56.263Z,13.80
2019-05-03T22:38:57.636Z,13.72
2019-05-03T22:43:58.973Z,13.67
2019-05-03T22:49:01.082Z,13.60
2019-05-03T22:54:04.588Z,13.59
2019-05-03T22:59:05.529Z,13.56
2019-05-03T23:04:05.579Z,13.53
2019-05-03T23:09:06.657Z,13.54
2019-05-03T23:14:08.001Z,13.54
2019-05-03T23:19:09.369Z,13.44
2019-05-03T23:24:10.780Z,13.08
2019-05-03T23:29:12.112Z,13.09
2019-05-03T23:34:13.467Z,13.04
2019-05-03T23:39:14.842Z,13.03
2019-05-03T23:44:16.174Z,12.99
2019-05-03T23:49:17.554Z,12.90
2019-05-03T23:54:18.965Z,12.82
2019-05-03T23:59:20.305Z,12.82
